Aérodrome :
LOGIN :

S'inscrire | Disclaimer

   EN    FR    IT 

 










Légende :    VFR   VFR Marginal   IFR   IFR Intensif   IFR Très Intensif
Visi : 
Plafond : 
>= 8 km
>= 3000ft
5 à 8 km
1000 à 3000 ft
1500m à 5 km
500 à 1000 ft
800 à 1500m
200 à 500 ft
< 800m
< 200 ft
Symboles :   Orages  Brouillard  Fortes neiges  Fortes précipitations  Vent > 20 kt
SIGMETs :   Divers  Orages  Givrage  Turbulence  Onde Orograph.  Cendres Volcan.






- Altitude de l'aérodrome : 157 ft
- Code IATA : LIL


LFQQ - Lille Lesquin

DERNIER METAR :
  • 031030Z AUTO 33008KT 290V360 CAVOK 22/09 Q1006 NOSIG

METARs EXPIRÉS :
  • 031000Z AUTO 32009KT 270V350 9999 FEW046 21/09 Q1007 NOSIG
  • 030930Z AUTO 32006KT 260V030 CAVOK 21/10 Q1007 NOSIG
  • 030900Z AUTO 32005KT 250V030 CAVOK 20/09 Q1007 NOSIG
  • 030830Z AUTO 31006KT 220V010 CAVOK 20/10 Q1007 NOSIG
  • 030800Z AUTO 33005KT 290V020 CAVOK 19/09 Q1008 NOSIG
  • 030730Z AUTO 35003KT 320V030 CAVOK 19/09 Q1008 NOSIG

TAF TAF LFQQ
Valide du 03 à 06h jusqu'au 04 à 12h UTC


030500Z 0306/0412 28005KT CAVOK
BECMG 0312/0314 35012KT
PROB30
TEMPO 0400/0405 BKN010
ATIS : +33 3 20 16 19 54



MET'MAP, la Météo Aéronautique d'un coup d'oeil ! - Copyright ORBIFLY Décembre 2007 - Disclaimer

ORBIFLY MET'MAP TEAM :

Programmation & Développement : Alexandra Zaïnal
Sur une idée originale de : Baudouin d'Aumeries
Assistance à la programmation : Marc-Olivier Méhu
Soutien technique & logistique : Manuel Goepfert

Contact : metmap@orbifly.com




SOURCES & CREDITS :

   NOAA